Station: Edithburgh

  Atmospheric Gas Attenuation - ITU Rec 676-11   --------------- db/100km ---------------
Date Time Temp RH % AH g/m3 Dew Point Wind Direction Speed kph Gust kph Barometer mB Rainfall Since 9am 24GHz 47GHz 76GHz 122GHz 134GHz 241GHz
25 00:40 16.3 88 12.21 14.4 9 9 1013.1 0 27.2 31.2 53.5 141.0 144.4 499.5
25 00:30 16.4 92 12.84 15.1 9 11 1013 0 28.5 32.3 56.2 148.3 153.3 530.8
25 00:20 16.5 92 12.92 15.2 7 9 1013.1 0 28.7 32.4 56.5 149.1 154.3 534.2
25 00:10 16.4 92 12.84 15.1 9 9 1013.1 0 28.5 32.3 56.2 148.3 153.3 530.8
25 00:00 16.4 91 12.7 14.9 7 11 1013.3 0 28.2 32.0 55.6 146.7 151.3 523.7
24 23:50 16.5 90 12.64 14.8 9 11 1013.1 0 28.1 31.9 55.3 145.7 150.2 519.9
24 23:40 16.5 88 12.36 14.6 9 9 1013.1 0 27.5 31.4 54.0 142.4 146.2 505.7
24 23:30 16.1 89 12.2 14.3 9 11 1013.5 0 27.2 31.3 53.6 141.3 144.6 500.4
24 23:20 16.1 88 12.06 14.1 11 11 1013.1 0 26.9 31.0 53.0 139.7 142.6 493.2
24 23:10 16.1 86 11.79 13.7 11 11 1013.1 0 26.3 30.5 51.8 136.5 138.7 479.7
24 23:00 15.9 85 11.51 13.4 9 11 1013.8 0 25.7 30.1 50.8 133.7 135.2 467.3
24 22:50 16 86 11.72 13.6 11 11 1013.1 0 26.2 30.4 51.6 135.9 137.9 476.8
24 22:40 15.6 83 11.04 12.7 9 9 1013.1 0 24.7 29.4 48.9 128.7 129.0 445.6
24 22:30 15.7 80 10.7 12.3 11 13 1013.9 0 24.0 28.8 47.4 124.8 124.1 428.8
24 22:20 15.8 77 10.36 11.9 11 13 1013.1 0 23.2 28.2 45.9 120.8 119.2 411.6
24 22:10 15.3 78 10.19 11.5 11 11 1013.1 0 22.9 28.1 45.5 119.6 117.7 406.1
24 22:00 14.6 81 10.14 11.4 9 11 1014.2 0 22.8 28.2 45.7 120.3 118.2 407.7
24 21:50 13.9 80 9.59 10.5 7 7 1013.1 0 21.7 27.5 43.8 115.1 111.6 384.5
24 21:40 14.4 79 9.77 10.8 7 9 1013.1 0 22.1 27.6 44.3 116.3 113.3 390.6
24 21:30 14.8 76 9.63 10.6 7 9 1014.3 0 21.7 27.3 43.5 114.3 110.9 382.4
24 21:20 14.9 78 9.94 11.1 7 7 1013.1 0 22.4 27.8 44.7 117.5 114.9 396.2
24 21:10 14.7 74 9.32 10.1 7 7 1013.1 0 21.1 26.8 42.2 111.0 106.8 367.9
24 21:00 16.2 73 10.07 11.4 7 9 1014.4 0 22.6 27.6 44.5 117.1 114.8 396.2
24 20:50 16.2 72 9.93 11.1 7 7 1013.1 0 22.3 27.3 43.9 115.4 112.8 389.2
24 20:40 16.1 73 10.01 11.4 6 6 1013.1 0 22.5 27.5 44.3 116.5 114.0 393.5
24 20:30 16.5 74 10.39 11.9 7 9 1014.4 0 23.3 28.1 45.7 120.2 118.7 409.8
24 20:20 16.5 75 10.53 12 9 9 1013.1 0 23.6 28.2 46.2 121.6 120.5 416.0
24 20:10 16.9 72 10.36 11.8 9 11 1013.1 0 23.2 27.8 45.3 119.1 117.5 405.9
24 20:00 17.2 70 10.25 11.7 11 13 1014.3 0 22.9 27.6 44.7 117.6 115.7 399.5
24 19:50 17.4 69 10.23 11.8 11 13 1013.1 0 22.9 27.5 44.5 116.9 115.0 397.2
24 19:40 17.6 69 10.35 11.8 9 11 1013.1 0 23.1 27.6 44.8 117.9 116.3 401.8
24 19:30 17.8 69 10.47 12 13 17 1014.3 0 23.4 27.8 45.3 119.0 117.8 406.7
24 19:20 17.9 69 10.53 12.1 13 15 1013.1 0 23.5 27.8 45.4 119.4 118.3 408.6
24 19:10 17.9 67 10.23 11.7 13 15 1013.1 0 22.9 27.3 44.2 116.2 114.3 394.7
24 19:00 18.4 65 10.22 11.7 13 17 1014.3 0 22.8 27.2 43.9 115.5 113.6 392.1
24 18:50 18.6 65 10.34 11.9 15 15 1013.1 0 23.0 27.3 44.2 116.3 114.7 396.2
24 18:40 18.6 65 10.34 11.9 17 19 1013.1 0 23.0 27.3 44.2 116.3 114.7 396.2
24 18:30 18.8 62 9.98 11.4 17 20 1014.1 0 22.3 26.7 42.7 112.3 109.8 379.1
24 18:20 18.9 64 10.37 11.9 17 19 1013.1 0 23.1 27.2 44.2 116.2 114.7 396.1
24 18:10 18.8 64 10.31 11.8 15 17 1013.1 0 23.0 27.2 44.0 115.7 114.0 393.8
24 18:00 18.6 63 10.03 11.4 17 22 1014.3 0 22.4 26.8 43.0 113.2 110.8 382.4
24 17:50 19.6 56 9.45 10.6 17 20 1013.1 0 21.1 25.6 40.2 105.6 101.9 351.5
24 17:40 19.4 58 9.68 10.9 17 19 1013.1 0 21.6 26.0 41.2 108.3 105.1 362.6
24 17:30 19.2 52 8.57 9.1 17 20 1014.4 0 19.3 24.4 37.1 97.4 91.6 315.2
24 17:20 19.7 55 9.34 10.6 13 17 1013.1 0 20.9 25.4 39.7 104.4 100.4 346.2
24 17:10 19.5 56 9.4 10.5 19 22 1013.1 0 21.0 25.5 40.1 105.3 101.4 349.7
24 17:00 19.6 55 9.28 10.3 15 19 1014.6 0 20.7 25.4 39.6 104.1 99.9 344.4
24 16:50 20.3 50 8.79 9.5 13 15 1013.1 0 19.7 24.4 37.4 98.1 92.9 320.0
24 16:40 20.7 47 8.46 9 17 20 1013.1 0 19.0 23.8 36.0 94.4 88.4 304.5
24 16:30 20.6 44 7.87 7.9 19 24 1014.7 0 17.7 23.0 34.0 89.0 81.7 280.7
24 16:20 21 46 8.43 9.2 19 22 1013.1 0 18.9 23.7 35.8 93.8 87.7 302.1
24 16:10 20.9 44 8.01 8.2 17 20 1013.1 0 18.0 23.1 34.3 89.9 82.9 285.0
24 16:00 21.1 44 8.11 8.4 17 22 1014.8 0 18.2 23.2 34.6 90.7 84.0 288.8
24 15:50 20.9 46 8.38 9.1 17 22 1013.1 0 18.8 23.6 35.6 93.4 87.3 300.4
24 15:40 20.8 46 8.33 9 19 20 1013.1 0 18.7 23.6 35.5 93.0 86.8 298.6
24 15:30 20.5 54 9.61 10.9 17 22 1015.2 0 21.4 25.6 40.5 106.3 102.9 355.1
24 15:20 20.8 52 9.41 10.8 19 20 1013.1 0 21.0 25.2 39.5 103.7 99.9 344.5
24 15:10 20.5 53 9.43 10.8 19 20 1013.1 0 21.0 25.3 39.7 104.2 100.5 346.7
24 15:00 20.5 57 10.14 11.7 19 24 1015.5 0 22.5 26.5 42.5 111.7 109.6 378.6
24 14:50 20.2 59 10.32 11.9 19 24 1013.1 0 22.9 26.7 43.3 113.8 112.1 387.4
24 14:40 20.1 57 9.91 11.5 20 26 1013.1 0 22.1 26.1 41.7 109.7 107.0 369.5
24 14:30 20 58 10.02 11.5 19 24 1015.9 0 22.3 26.4 42.3 111.2 108.8 375.7
24 14:20 20.2 57 9.97 11.6 20 22 1013.1 0 22.2 26.2 41.9 110.2 107.7 371.7
24 14:10 20.2 57 9.97 11.4 17 20 1013.1 0 22.2 26.2 41.9 110.2 107.7 371.7
24 14:00 20 60 10.37 12 19 26 1016.5 0 23.0 27.0 43.7 115.0 113.4 391.7
24 13:50 19.7 60 10.19 11.7 15 20 1013.1 0 22.7 26.7 43.0 113.1 111.2 384.0
24 13:40 19.3 61 10.12 11.6 19 24 1013.1 0 22.5 26.7 43.0 113.0 110.8 382.7
24 13:30 19.1 62 10.16 11.7 20 28 1016.8 0 22.6 27.0 43.4 114.1 112.0 386.7
24 13:20 19.8 60 10.25 11.8 20 24 1013.1 0 22.8 26.8 43.2 113.6 111.8 386.2
24 13:10 19.2 60 9.89 11.2 17 20 1013.1 0 22.1 26.4 42.1 110.7 108.0 372.9
24 13:00 18.4 61 9.59 10.8 19 24 1016.9 0 21.5 26.3 41.5 109.1 105.6 364.2
24 12:50 19.8 60 10.25 12 19 22 1013.1 0 22.8 26.8 43.2 113.6 111.8 386.2
24 12:40 19.3 59 9.79 11.1 19 22 1013.1 0 21.8 26.2 41.7 109.5 106.6 367.9
24 12:30 18.8 60 9.66 10.9 17 24 1017.3 0 21.6 26.3 41.6 109.3 106.0 365.6
24 12:20 18.8 61 9.82 11.1 15 17 1013.1 0 21.9 26.4 42.1 110.5 107.7 371.6
24 12:10 18.9 59 9.56 10.9 17 22 1013.1 0 21.4 25.9 41.0 107.7 104.2 359.5
24 12:00 19.2 60 9.89 11.3 19 24 1017.5 0 22.1 26.5 42.3 111.2 108.4 374.2
24 11:50 19.3 56 9.29 10.5 19 22 1013.1 0 20.8 25.4 39.8 104.4 100.3 345.8
24 11:40 18.6 60 9.55 10.7 19 22 1013.1 0 21.4 26.0 41.1 108.0 104.5 360.4
24 11:30 19.3 58 9.62 10.8 20 28 1017.8 0 21.5 26.1 41.2 108.3 104.8 361.7
24 11:20 18 60 9.21 10.1 19 20 1013.1 0 20.7 25.6 40.1 105.3 100.9 347.9
24 11:10 18.3 61 9.54 10.6 19 22 1013.1 0 21.4 26.1 41.2 108.3 104.8 361.3
24 11:00 18.3 61 9.54 10.7 19 26 1017.9 0 21.4 26.3 41.4 108.8 105.2 362.7
24 10:50 18.4 61 9.59 10.7 17 20 1013.1 0 21.5 26.1 41.4 108.7 105.3 363.1
24 10:40 18.4 59 9.28 10.2 15 20 1013.1 0 20.8 25.6 40.2 105.5 101.3 349.3
24 10:30 17.8 60 9.11 9.9 13 19 1018 0 20.5 25.7 40.0 105.0 100.3 345.7
24 10:20 17.9 60 9.16 10.2 15 17 1013.1 0 20.6 25.6 39.9 104.9 100.4 346.1
24 10:10 17.7 62 9.35 10.3 11 13 1013.1 0 21.0 26.0 40.8 107.1 103.1 355.5
24 10:00 17.6 60 9 9.8 13 19 1018 0 20.2 25.6 39.7 104.1 99.2 341.6
24 09:50 18 60 9.21 10.3 11 15 1013.1 0 20.7 25.6 40.1 105.3 100.9 347.9
24 09:40 17.7 61 9.2 10.1 11 11 1013.1 0 20.7 25.7 40.2 105.6 101.2 348.8
24 09:30 18 60 9.21 10.1 7 15 1018.1 0 20.7 25.8 40.3 105.8 101.3 349.3
24 09:20 17.8 60 9.11 10.1 9 11 1013.1 0 20.5 25.5 39.8 104.5 99.9 344.3
24 09:10 17.9 60 9.16 10.2 9 9 1013.1 0 20.6 25.6 39.9 104.9 100.4 346.1
24 09:00 17.9 60 9.16 10 7 13 1018.2 0 20.6 25.8 40.2 105.4 100.8 347.5
24 08:50 17.6 62 9.3 10.2 7 11 1013.1 0 20.9 25.9 40.6 106.8 102.6 353.7
24 08:40 17.3 63 9.28 10.2 6 6 1013.1 0 20.9 26.0 40.7 107.0 102.7 354.1
24 08:30 16.6 65 9.18 10 6 9 1018.1 0 20.7 26.2 40.9 107.4 102.8 354.2
24 08:20 16.8 64 9.15 10.1 6 7 1013.1 0 20.6 25.9 40.5 106.3 101.7 350.5
24 08:10 16.3 66 9.16 9.9 7 7 1013.1 0 20.7 26.1 40.8 107.0 102.5 353.2

Last Refresh: 25-Nov-2020 00:54:51

Most of the information presented on this site is sourced from the Bureau of Meteorology.  Copyright in all material sourced from the Bureau of Meteorology resides with the Commonwealth of Australia.